createdAt,value
2022-09-07T00:01:11.115Z,0.98
2022-09-07T00:03:43.870Z,1.00
2022-09-07T00:08:50.918Z,1.20
2022-09-07T00:11:25.087Z,1.23
2022-09-07T00:13:57.944Z,1.40
2022-09-07T00:16:32.305Z,1.50
2022-09-07T00:19:05.636Z,1.15
2022-09-07T00:21:39.279Z,1.00
2022-09-07T00:24:12.267Z,1.27
2022-09-07T00:29:19.208Z,1.10
2022-09-07T00:31:52.063Z,0.90
2022-09-07T00:36:57.432Z,1.10
2022-09-07T00:39:30.261Z,1.00
2022-09-07T00:42:04.780Z,1.10
2022-09-07T00:45:03.997Z,0.93
2022-09-07T00:47:46.940Z,0.70
2022-09-07T00:50:23.292Z,0.77
2022-09-07T00:53:00.537Z,0.95
2022-09-07T00:55:34.941Z,0.90
2022-09-07T00:58:10.413Z,0.77
2022-09-07T01:00:45.590Z,0.80
2022-09-07T01:03:22.785Z,0.60
2022-09-07T01:06:00.303Z,0.80
2022-09-07T01:08:35.831Z,0.75
2022-09-07T01:11:09.235Z,0.82
2022-09-07T01:13:46.179Z,0.60
2022-09-07T01:16:33.041Z,0.77
2022-09-07T01:19:25.318Z,0.60
2022-09-07T01:22:12.141Z,0.63
2022-09-07T01:24:57.481Z,0.60
2022-09-07T01:28:02.920Z,0.77
2022-09-07T01:30:40.035Z,0.60
2022-09-07T01:33:33.998Z,1.15
2022-09-07T01:36:17.008Z,0.90
2022-09-07T01:38:54.062Z,0.95
2022-09-07T01:41:34.107Z,1.00
2022-09-07T01:44:12.303Z,1.27
2022-09-07T01:46:53.569Z,0.68
2022-09-07T01:49:31.495Z,0.95
2022-09-07T01:52:09.795Z,0.80
2022-09-07T01:54:48.480Z,0.60
2022-09-07T01:57:28.110Z,0.60
2022-09-07T02:00:07.948Z,0.90
2022-09-07T02:02:53.326Z,0.90
2022-09-07T02:05:31.146Z,0.80
2022-09-07T02:08:07.869Z,0.70
2022-09-07T02:10:45.231Z,0.88
2022-09-07T02:13:24.616Z,0.80
2022-09-07T02:16:02.075Z,1.23
2022-09-07T02:18:40.462Z,0.75
2022-09-07T02:21:18.455Z,0.65
2022-09-07T02:23:55.168Z,1.00
2022-09-07T02:26:29.708Z,0.73
2022-09-07T02:29:02.825Z,0.85
2022-09-07T02:31:35.648Z,0.77
2022-09-07T02:36:47.738Z,0.52
2022-09-07T02:39:20.550Z,0.60
2022-09-07T02:41:53.314Z,0.88
2022-09-07T02:44:31.603Z,0.80
2022-09-07T02:47:18.938Z,0.75
2022-09-07T02:50:11.247Z,0.77
2022-09-07T02:52:57.680Z,0.70
2022-09-07T02:55:41.845Z,0.80
2022-09-07T02:58:24.818Z,0.70
2022-09-07T03:01:06.517Z,0.65
2022-09-07T03:03:46.689Z,0.50
2022-09-07T03:06:27.396Z,0.50
2022-09-07T03:09:02.979Z,0.80
2022-09-07T03:11:37.540Z,0.70
2022-09-07T03:14:14.772Z,1.23
2022-09-07T03:16:49.168Z,0.90
2022-09-07T03:19:22.059Z,0.70
2022-09-07T03:21:56.129Z,0.75
2022-09-07T03:24:28.804Z,0.68
2022-09-07T03:27:02.046Z,0.82
2022-09-07T03:29:35.909Z,0.75
2022-09-07T03:32:11.090Z,1.00
2022-09-07T03:37:18.044Z,0.68
2022-09-07T03:39:50.930Z,0.50
2022-09-07T03:42:24.356Z,0.65
2022-09-07T03:44:57.167Z,0.80
2022-09-07T03:50:02.856Z,0.73
2022-09-07T03:55:10.184Z,0.70
2022-09-07T04:00:16.352Z,0.80
2022-09-07T04:02:49.103Z,0.70
2022-09-07T04:05:21.925Z,0.88
2022-09-07T04:07:56.114Z,0.73
2022-09-07T04:10:28.807Z,0.80
2022-09-07T04:13:01.542Z,0.75
2022-09-07T04:15:34.594Z,0.80
2022-09-07T04:20:39.921Z,0.67
2022-09-07T04:23:14.264Z,0.70
2022-09-07T04:25:50.640Z,0.80
2022-09-07T04:28:23.585Z,1.02
2022-09-07T04:33:31.858Z,0.70
2022-09-07T04:36:05.756Z,0.60
2022-09-07T04:38:40.914Z,0.70
2022-09-07T04:41:15.791Z,0.50
2022-09-07T04:43:48.603Z,0.70
2022-09-07T04:48:57.608Z,1.00
2022-09-07T04:51:32.536Z,0.80
2022-09-07T04:54:07.321Z,0.77
2022-09-07T04:56:40.109Z,0.70
2022-09-07T04:59:13.106Z,0.98
2022-09-07T05:04:18.910Z,0.70
2022-09-07T05:06:51.568Z,0.95
2022-09-07T05:09:25.553Z,1.40
2022-09-07T05:11:58.295Z,0.95
2022-09-07T05:14:31.049Z,0.88
2022-09-07T05:17:04.524Z,0.93
2022-09-07T05:19:37.615Z,0.82
2022-09-07T05:22:10.275Z,1.48
2022-09-07T05:24:44.568Z,0.77
2022-09-07T05:27:18.184Z,0.98
2022-09-07T05:30:06.593Z,0.90
2022-09-07T05:32:39.811Z,1.02
2022-09-07T05:35:12.524Z,1.30
2022-09-07T05:37:45.891Z,1.38
2022-09-07T05:40:20.176Z,1.30
2022-09-07T05:42:52.979Z,0.80
2022-09-07T05:45:25.704Z,1.00
2022-09-07T05:47:58.635Z,1.00
2022-09-07T05:53:04.701Z,1.27
2022-09-07T05:55:38.841Z,1.13
2022-09-07T05:58:11.543Z,1.13
2022-09-07T06:00:44.341Z,1.30
2022-09-07T06:03:17.187Z,0.98
2022-09-07T06:08:22.532Z,1.80
2022-09-07T06:10:57.395Z,1.35
2022-09-07T06:13:30.224Z,2.47
2022-09-07T06:18:37.828Z,1.48
2022-09-07T06:21:14.248Z,1.23
2022-09-07T06:23:48.580Z,1.45
2022-09-07T06:26:22.663Z,1.40
2022-09-07T06:28:57.882Z,1.40
2022-09-07T06:31:30.979Z,1.30
2022-09-07T06:36:36.609Z,1.30
2022-09-07T06:44:36.814Z,1.40
2022-09-07T06:47:10.729Z,1.15
2022-09-07T06:49:43.647Z,1.63
2022-09-07T06:52:16.483Z,1.38
2022-09-07T06:57:31.614Z,1.40
2022-09-07T07:00:05.632Z,1.58
2022-09-07T07:02:38.390Z,1.30
2022-09-07T07:05:11.505Z,1.35
2022-09-07T07:07:44.214Z,1.45
2022-09-07T07:10:19.745Z,1.38
2022-09-07T07:12:58.448Z,1.50
2022-09-07T07:15:31.770Z,1.17
2022-09-07T07:20:53.832Z,2.65
2022-09-07T07:23:26.750Z,2.80
2022-09-07T07:26:03.312Z,3.17
2022-09-07T07:31:33.125Z,3.28
2022-09-07T07:34:06.118Z,3.35
2022-09-07T07:42:06.147Z,4.18
2022-09-07T07:44:40.339Z,3.10
2022-09-07T07:47:12.942Z,4.00
2022-09-07T07:49:45.799Z,4.28
2022-09-07T07:58:03.669Z,4.63
2022-09-07T08:00:53.759Z,4.53
2022-09-07T08:03:27.263Z,5.30
2022-09-07T08:06:07.974Z,4.72
2022-09-07T08:08:41.339Z,5.03
2022-09-07T08:11:16.927Z,4.18
2022-09-07T08:13:50.963Z,4.63
2022-09-07T08:16:24.981Z,4.30
2022-09-07T08:18:58.391Z,4.50
2022-09-07T08:21:31.247Z,3.58
2022-09-07T08:24:04.931Z,4.28
2022-09-07T08:26:37.594Z,3.83
2022-09-07T08:29:10.388Z,4.07
2022-09-07T08:31:44.802Z,4.03
2022-09-07T08:34:17.941Z,4.82
2022-09-07T08:36:50.546Z,5.18
2022-09-07T08:39:23.221Z,5.38
2022-09-07T08:42:11.584Z,4.10
2022-09-07T08:44:49.516Z,4.38
2022-09-07T08:47:33.564Z,3.92
2022-09-07T08:50:11.676Z,3.80
2022-09-07T08:52:47.697Z,3.90
2022-09-07T08:55:27.811Z,4.38
2022-09-07T08:58:14.561Z,4.05
2022-09-07T09:07:00.565Z,4.68
2022-09-07T09:09:47.929Z,5.00
2022-09-07T09:12:29.061Z,4.78
2022-09-07T09:15:16.825Z,4.30
2022-09-07T09:17:57.793Z,4.20
2022-09-07T09:20:38.102Z,3.25
2022-09-07T09:23:13.464Z,2.70
2022-09-07T09:25:53.358Z,4.03
2022-09-07T09:28:28.812Z,4.25
2022-09-07T09:31:04.950Z,3.05
2022-09-07T09:33:37.910Z,2.88
2022-09-07T09:38:57.100Z,3.70
2022-09-07T09:41:37.631Z,3.05
2022-09-07T09:44:17.035Z,3.45
2022-09-07T09:49:48.821Z,2.80
2022-09-07T09:52:38.099Z,2.78
2022-09-07T09:55:35.943Z,2.00
2022-09-07T10:01:25.357Z,2.63
2022-09-07T10:04:04.468Z,2.95
2022-09-07T10:06:40.133Z,2.67
2022-09-07T10:09:19.889Z,2.33
2022-09-07T10:12:07.009Z,2.47
2022-09-07T10:14:44.557Z,2.17
2022-09-07T10:17:26.461Z,1.98
2022-09-07T10:20:01.969Z,3.60
2022-09-07T10:22:36.655Z,2.90
2022-09-07T10:25:29.633Z,2.63
2022-09-07T10:28:15.132Z,2.80
2022-09-07T10:31:02.850Z,2.90
2022-09-07T10:34:25.757Z,3.30
2022-09-07T10:36:46.873Z,2.55
2022-09-07T10:39:26.594Z,2.55
2022-09-07T10:42:10.835Z,2.63
2022-09-07T10:44:57.819Z,2.50
2022-09-07T10:47:46.766Z,2.97
2022-09-07T10:50:29.803Z,2.75
2022-09-07T10:56:18.453Z,1.90
2022-09-07T10:59:03.398Z,2.10
2022-09-07T11:01:51.085Z,1.48
2022-09-07T11:04:49.487Z,1.98
2022-09-07T11:07:37.273Z,1.67
2022-09-07T11:10:19.703Z,2.25
2022-09-07T11:12:55.104Z,2.20
2022-09-07T11:15:32.497Z,1.90
2022-09-07T11:18:09.800Z,2.65
2022-09-07T11:20:50.679Z,1.58
2022-09-07T11:23:29.361Z,2.00
2022-09-07T11:26:08.413Z,2.97
2022-09-07T11:28:47.959Z,2.30
2022-09-07T11:31:26.298Z,1.75
2022-09-07T11:37:02.231Z,2.55
2022-09-07T11:39:40.830Z,2.22
2022-09-07T11:45:16.202Z,1.83
2022-09-07T11:47:56.981Z,2.30
2022-09-07T11:50:33.760Z,2.33
2022-09-07T11:53:10.522Z,2.63
2022-09-07T11:55:47.079Z,2.30
2022-09-07T11:58:55.436Z,1.80
2022-09-07T12:01:40.305Z,2.10
2022-09-07T12:04:30.017Z,2.05
2022-09-07T12:07:18.085Z,2.45
2022-09-07T12:10:06.444Z,1.80
2022-09-07T12:12:57.315Z,2.65
2022-09-07T12:15:42.692Z,2.60
2022-09-07T12:18:27.632Z,2.60
2022-09-07T12:21:01.804Z,2.47
2022-09-07T12:23:34.634Z,2.25
2022-09-07T12:29:06.732Z,2.45
2022-09-07T12:31:57.313Z,2.75
2022-09-07T12:34:50.849Z,2.53
2022-09-07T12:37:37.826Z,2.55
2022-09-07T12:40:48.744Z,2.40
2022-09-07T12:44:07.015Z,2.20
2022-09-07T12:46:53.212Z,2.13
2022-09-07T12:49:37.711Z,3.70
2022-09-07T12:52:45.653Z,2.42
2022-09-07T12:55:33.402Z,3.00
2022-09-07T12:58:37.783Z,2.70
2022-09-07T13:01:27.214Z,3.58
2022-09-07T13:04:16.523Z,2.58
2022-09-07T13:07:07.455Z,2.63
2022-09-07T13:09:42.356Z,2.05
2022-09-07T13:15:41.372Z,2.50
2022-09-07T13:18:43.330Z,2.47
2022-09-07T13:21:35.333Z,2.47
2022-09-07T13:24:47.317Z,2.22
2022-09-07T13:27:53.825Z,2.75
2022-09-07T13:30:38.415Z,2.88
2022-09-07T13:33:43.618Z,2.17
2022-09-07T13:36:25.504Z,2.80
2022-09-07T13:38:59.201Z,2.15
2022-09-07T13:41:36.905Z,2.50
2022-09-07T13:44:25.092Z,1.92
2022-09-07T13:47:08.418Z,2.95
2022-09-07T13:50:05.390Z,2.30
2022-09-07T13:52:52.469Z,1.90
2022-09-07T13:55:34.119Z,1.85
2022-09-07T13:58:15.302Z,1.92
2022-09-07T14:00:55.069Z,2.13
2022-09-07T14:03:33.529Z,1.60
2022-09-07T14:06:31.169Z,1.85
2022-09-07T14:09:06.982Z,2.00
2022-09-07T14:11:42.101Z,1.63
2022-09-07T14:14:17.536Z,2.20
2022-09-07T14:17:02.313Z,3.15
2022-09-07T14:19:40.627Z,2.42
2022-09-07T14:22:16.767Z,2.33
2022-09-07T14:24:51.833Z,2.30
2022-09-07T14:27:27.155Z,2.08
2022-09-07T14:30:16.057Z,2.53
2022-09-07T14:32:52.702Z,1.60
2022-09-07T14:35:28.313Z,2.10
2022-09-07T14:38:06.833Z,2.30
2022-09-07T14:40:39.746Z,2.38
2022-09-07T14:43:28.367Z,1.65
2022-09-07T14:46:14.633Z,1.65
2022-09-07T14:48:51.487Z,1.83
2022-09-07T14:51:35.113Z,2.15
2022-09-07T14:54:10.091Z,1.80
2022-09-07T14:56:43.811Z,2.65
2022-09-07T14:59:36.674Z,1.73
2022-09-07T15:02:24.020Z,1.80
2022-09-07T15:05:22.993Z,1.92
2022-09-07T15:07:58.054Z,1.60
2022-09-07T15:10:37.441Z,2.20
2022-09-07T15:13:25.894Z,2.47
2022-09-07T15:16:01.179Z,1.90
2022-09-07T15:18:54.465Z,1.85
2022-09-07T15:21:30.392Z,2.13
2022-09-07T15:24:04.559Z,2.38
2022-09-07T15:29:33.509Z,2.00
2022-09-07T15:34:43.290Z,2.22
2022-09-07T15:40:17.341Z,1.83
2022-09-07T15:43:19.621Z,2.10
2022-09-07T15:45:42.782Z,2.10
2022-09-07T15:48:16.793Z,1.98
2022-09-07T15:50:50.090Z,1.50
2022-09-07T15:56:20.363Z,1.65
2022-09-07T15:58:54.251Z,1.60
2022-09-07T16:04:19.706Z,2.30
2022-09-07T16:09:26.730Z,1.83
2022-09-07T16:12:59.947Z,1.95
2022-09-07T16:14:56.455Z,1.52
2022-09-07T16:17:35.743Z,1.80
2022-09-07T16:20:10.341Z,1.70
2022-09-07T16:25:38.322Z,2.20
2022-09-07T16:28:11.711Z,2.00
2022-09-07T16:30:44.695Z,2.03
2022-09-07T16:33:17.417Z,2.05
2022-09-07T16:35:59.568Z,2.08
2022-09-07T16:38:48.356Z,1.45
2022-09-07T16:41:26.391Z,1.85
2022-09-07T16:43:59.939Z,2.08
2022-09-07T16:46:34.793Z,2.03
2022-09-07T16:49:08.083Z,1.90
2022-09-07T16:51:41.032Z,2.65
2022-09-07T16:54:15.789Z,2.60
2022-09-07T16:56:49.738Z,2.25
2022-09-07T16:59:26.615Z,2.17
2022-09-07T17:01:59.338Z,2.38
2022-09-07T17:04:32.442Z,2.20
2022-09-07T17:07:05.423Z,1.80
2022-09-07T17:09:38.220Z,1.92
2022-09-07T17:14:45.660Z,2.25
2022-09-07T17:19:53.127Z,1.60
2022-09-07T17:22:26.509Z,1.80
2022-09-07T17:24:59.222Z,1.90
2022-09-07T17:27:33.281Z,1.98
2022-09-07T17:30:07.009Z,2.55
2022-09-07T17:32:39.741Z,2.80
2022-09-07T17:35:12.451Z,1.80
2022-09-07T17:37:45.051Z,2.15
2022-09-07T17:40:17.813Z,1.90
2022-09-07T17:45:44.750Z,2.53
2022-09-07T17:51:01.079Z,2.28
2022-09-07T17:53:34.847Z,2.17
2022-09-07T17:56:09.471Z,1.80
2022-09-07T17:58:44.996Z,1.52
2022-09-07T18:01:20.042Z,1.40
2022-09-07T18:03:52.884Z,2.17
2022-09-07T18:06:26.731Z,1.58
2022-09-07T18:08:59.981Z,1.15
2022-09-07T18:11:49.329Z,2.05
2022-09-07T18:14:23.910Z,2.00
2022-09-07T18:16:57.096Z,1.08
2022-09-07T18:19:29.846Z,2.78
2022-09-07T18:22:03.857Z,1.40
2022-09-07T18:24:37.220Z,2.40
2022-09-07T18:27:10.119Z,1.52
2022-09-07T18:29:44.355Z,1.40
2022-09-07T18:32:17.738Z,1.40
2022-09-07T18:34:50.997Z,1.85
2022-09-07T18:37:24.014Z,1.52
2022-09-07T18:42:30.347Z,1.60
2022-09-07T18:47:57.799Z,1.60
2022-09-07T18:50:31.624Z,1.33
2022-09-07T18:53:16.252Z,1.52
2022-09-07T18:55:50.712Z,1.67
2022-09-07T18:58:24.405Z,1.30
2022-09-07T19:01:03.360Z,1.42
2022-09-07T19:03:37.533Z,1.17
2022-09-07T19:06:12.967Z,1.27
2022-09-07T19:08:46.977Z,1.30
2022-09-07T19:11:21.989Z,0.98
2022-09-07T19:13:58.574Z,1.25
2022-09-07T19:16:33.405Z,1.75
2022-09-07T19:19:08.035Z,1.10
2022-09-07T19:21:45.134Z,1.40
2022-09-07T19:24:19.960Z,1.20
2022-09-07T19:26:55.775Z,1.38
2022-09-07T19:29:32.415Z,1.33
2022-09-07T19:32:10.759Z,1.15
2022-09-07T19:34:45.612Z,1.08
2022-09-07T19:37:18.364Z,1.13
2022-09-07T19:39:51.678Z,1.30
2022-09-07T19:42:25.362Z,1.92
2022-09-07T19:44:58.114Z,1.30
2022-09-07T19:47:32.095Z,2.00
2022-09-07T19:50:06.275Z,1.58
2022-09-07T19:52:39.073Z,1.88
2022-09-07T19:55:12.598Z,1.30
2022-09-07T19:57:47.487Z,1.70
2022-09-07T20:00:20.374Z,1.70
2022-09-07T20:05:30.972Z,1.90
2022-09-07T20:08:03.754Z,1.67
2022-09-07T20:10:37.676Z,1.63
2022-09-07T20:13:10.511Z,1.50
2022-09-07T20:15:43.263Z,1.35
2022-09-07T20:18:17.525Z,1.63
2022-09-07T20:20:50.565Z,2.03
2022-09-07T20:25:59.459Z,1.45
2022-09-07T20:28:33.135Z,1.73
2022-09-07T20:31:08.302Z,1.35
2022-09-07T20:33:43.662Z,1.48
2022-09-07T20:36:18.838Z,2.13
2022-09-07T20:38:54.505Z,1.33
2022-09-07T20:41:29.829Z,1.00
2022-09-07T20:44:05.793Z,1.45
2022-09-07T20:46:38.754Z,1.13
2022-09-07T20:49:12.956Z,1.33
2022-09-07T20:51:45.729Z,1.55
2022-09-07T20:54:18.997Z,1.13
2022-09-07T20:56:51.830Z,1.35
2022-09-07T20:59:25.374Z,1.10
2022-09-07T21:01:58.397Z,1.40
2022-09-07T21:07:05.186Z,1.30
2022-09-07T21:09:37.880Z,1.30
2022-09-07T21:12:11.815Z,1.40
2022-09-07T21:14:46.220Z,1.33
2022-09-07T21:17:19.157Z,1.17
2022-09-07T21:22:26.398Z,1.60
2022-09-07T21:24:59.253Z,1.10
2022-09-07T21:27:38.627Z,1.63
2022-09-07T21:30:12.693Z,1.33
2022-09-07T21:32:45.659Z,1.50
2022-09-07T21:37:53.420Z,1.48
2022-09-07T21:40:26.090Z,1.15
2022-09-07T21:42:58.805Z,1.30
2022-09-07T21:45:32.323Z,1.42
2022-09-07T21:48:05.390Z,1.55
2022-09-07T21:50:39.418Z,1.55
2022-09-07T21:53:12.688Z,1.17
2022-09-07T21:55:45.396Z,1.45
2022-09-07T21:58:18.182Z,1.27
2022-09-07T22:00:50.872Z,1.63
2022-09-07T22:06:05.708Z,1.00
2022-09-07T22:08:40.786Z,1.38
2022-09-07T22:11:15.995Z,1.20
2022-09-07T22:13:49.315Z,1.48
2022-09-07T22:16:22.112Z,1.52
2022-09-07T22:18:54.992Z,1.30
2022-09-07T22:21:30.696Z,1.67
2022-09-07T22:24:05.939Z,1.30
2022-09-07T22:26:39.427Z,1.27
2022-09-07T22:29:13.190Z,1.30
2022-09-07T22:31:45.967Z,1.30
2022-09-07T22:34:18.680Z,1.42
2022-09-07T22:36:52.964Z,1.02
2022-09-07T22:39:25.939Z,1.85
2022-09-07T22:41:58.550Z,1.88
2022-09-07T22:47:21.495Z,1.52
2022-09-07T22:49:54.351Z,1.40
2022-09-07T22:52:28.386Z,1.50
2022-09-07T22:55:01.162Z,1.40
2022-09-07T22:57:33.787Z,1.77
2022-09-07T23:00:07.992Z,1.67
2022-09-07T23:02:40.638Z,1.30
2022-09-07T23:05:13.814Z,1.45
2022-09-07T23:07:50.621Z,1.23
2022-09-07T23:10:23.489Z,1.65
2022-09-07T23:12:56.173Z,1.48
2022-09-07T23:15:29.534Z,1.25
2022-09-07T23:18:02.262Z,1.48
2022-09-07T23:20:35.227Z,1.75
2022-09-07T23:23:09.881Z,1.30
2022-09-07T23:25:43.734Z,1.30
2022-09-07T23:28:16.579Z,1.50
2022-09-07T23:33:22.362Z,1.65
2022-09-07T23:35:59.875Z,1.30
2022-09-07T23:38:37.314Z,1.20
2022-09-07T23:41:10.048Z,1.30
2022-09-07T23:43:42.793Z,1.25
2022-09-07T23:46:16.511Z,1.95
2022-09-07T23:48:49.814Z,1.30
2022-09-07T23:51:24.473Z,1.60
2022-09-07T23:53:59.238Z,1.10
2022-09-07T23:56:32.647Z,1.20
2022-09-07T23:59:06.345Z,1.08
